createdAt,value
2023-03-04T00:02:19.582Z,2.25
2023-03-04T00:04:46.181Z,2.31
2023-03-04T00:07:16.767Z,2.45
2023-03-04T00:09:44.776Z,2.55
2023-03-04T00:12:11.644Z,2.39
2023-03-04T00:14:38.436Z,2.43
2023-03-04T00:17:05.058Z,2.36
2023-03-04T00:19:32.080Z,2.48
2023-03-04T00:21:58.752Z,2.63
2023-03-04T00:24:25.307Z,2.55
2023-03-04T00:26:51.988Z,2.39
2023-03-04T00:29:18.709Z,2.40
2023-03-04T00:31:45.321Z,2.41
2023-03-04T00:34:11.917Z,2.17
2023-03-04T00:36:38.596Z,2.42
2023-03-04T00:39:05.402Z,2.57
2023-03-04T00:41:32.001Z,2.42
2023-03-04T00:43:58.586Z,2.47
2023-03-04T00:46:25.147Z,2.48
2023-03-04T00:48:51.728Z,2.51
2023-03-04T00:51:18.374Z,2.27
2023-03-04T00:53:45.003Z,2.50
2023-03-04T00:56:11.598Z,2.36
2023-03-04T00:58:39.382Z,2.59
2023-03-04T01:01:07.410Z,2.49
2023-03-04T01:03:34.584Z,2.43
2023-03-04T01:06:01.498Z,2.40
2023-03-04T01:08:28.130Z,2.26
2023-03-04T01:10:54.754Z,2.33
2023-03-04T01:13:21.343Z,2.42
2023-03-04T01:15:47.914Z,2.35
2023-03-04T01:18:14.574Z,2.18
2023-03-04T01:20:41.145Z,2.33
2023-03-04T01:23:07.756Z,2.31
2023-03-04T01:25:34.429Z,2.27
2023-03-04T01:28:01.102Z,2.37
2023-03-04T01:30:27.728Z,2.24
2023-03-04T01:32:54.313Z,2.22
2023-03-04T01:35:20.871Z,2.21
2023-03-04T01:37:47.564Z,2.39
2023-03-04T01:40:14.709Z,2.26
2023-03-04T01:42:46.742Z,2.34
2023-03-04T01:45:19.393Z,2.15
2023-03-04T01:47:49.094Z,2.35
2023-03-04T01:50:35.852Z,2.38
2023-03-04T01:53:04.014Z,2.36
2023-03-04T01:55:31.705Z,2.49
2023-03-04T01:57:58.355Z,2.41
2023-03-04T02:00:31.779Z,2.23
2023-03-04T02:03:07.875Z,2.42
2023-03-04T02:05:38.095Z,2.36
2023-03-04T02:08:05.916Z,2.35
2023-03-04T02:10:33.687Z,2.40
2023-03-04T02:13:01.438Z,2.20
2023-03-04T02:15:29.006Z,2.41
2023-03-04T02:17:55.594Z,2.16
2023-03-04T02:20:44.900Z,2.32
2023-03-04T02:23:37.655Z,2.36
2023-03-04T02:26:19.497Z,2.25
2023-03-04T02:28:47.670Z,2.09
2023-03-04T02:31:36.171Z,2.25
2023-03-04T02:34:07.032Z,2.16
2023-03-04T02:36:36.189Z,2.21
2023-03-04T02:39:11.218Z,2.27
2023-03-04T02:41:38.388Z,2.23
2023-03-04T02:44:17.678Z,2.23
2023-03-04T02:46:45.016Z,2.23
2023-03-04T02:49:11.763Z,2.12
2023-03-04T02:51:39.064Z,2.12
2023-03-04T02:54:23.434Z,2.10
2023-03-04T02:56:53.618Z,2.13
2023-03-04T02:59:22.061Z,1.94
2023-03-04T03:01:49.737Z,1.81
2023-03-04T03:04:17.987Z,1.95
2023-03-04T03:06:44.787Z,1.96
2023-03-04T03:09:11.472Z,1.89
2023-03-04T03:11:38.158Z,1.98
2023-03-04T03:14:04.891Z,1.99
2023-03-04T03:16:31.827Z,1.92
2023-03-04T03:18:58.694Z,1.93
2023-03-04T03:21:25.561Z,1.81
2023-03-04T03:23:52.198Z,1.74
2023-03-04T03:26:19.870Z,1.81
2023-03-04T03:28:46.490Z,1.71
2023-03-04T03:31:13.383Z,1.90
2023-03-04T03:33:40.049Z,1.87
2023-03-04T03:36:07.428Z,1.89
2023-03-04T03:38:35.284Z,1.78
2023-03-04T03:41:01.863Z,1.78
2023-03-04T03:43:28.477Z,1.73
2023-03-04T03:45:55.078Z,1.71
2023-03-04T03:48:21.660Z,1.65
2023-03-04T03:50:48.355Z,1.57
2023-03-04T03:53:14.974Z,1.83
2023-03-04T03:55:41.757Z,1.71
2023-03-04T03:58:08.364Z,1.88
2023-03-04T04:00:35.001Z,1.56
2023-03-04T04:03:02.102Z,1.74
2023-03-04T04:05:28.821Z,1.82
2023-03-04T04:07:56.008Z,1.78
2023-03-04T04:10:22.618Z,1.89
2023-03-04T04:12:49.262Z,1.83
2023-03-04T04:15:15.939Z,1.70
2023-03-04T04:17:42.532Z,1.89
2023-03-04T04:20:09.759Z,1.80
2023-03-04T04:22:36.369Z,1.84
2023-03-04T04:25:03.030Z,1.73
2023-03-04T04:27:29.702Z,1.63
2023-03-04T04:29:56.317Z,1.57
2023-03-04T04:32:23.006Z,1.66
2023-03-04T04:34:49.663Z,1.71
2023-03-04T04:37:16.236Z,1.75
2023-03-04T04:39:42.797Z,1.71
2023-03-04T04:42:11.367Z,1.71
2023-03-04T04:44:39.014Z,1.62
2023-03-04T04:47:07.197Z,1.89
2023-03-04T04:49:33.891Z,1.86
2023-03-04T04:52:00.507Z,1.85
2023-03-04T04:54:27.072Z,1.75
2023-03-04T04:56:53.735Z,1.97
2023-03-04T04:59:20.364Z,1.82
2023-03-04T05:01:47.589Z,1.73
2023-03-04T05:04:14.573Z,1.57
2023-03-04T05:06:41.229Z,1.85
2023-03-04T05:09:08.018Z,1.99
2023-03-04T05:11:34.646Z,1.71
2023-03-04T05:14:01.279Z,1.70
2023-03-04T05:16:27.884Z,1.73
2023-03-04T05:18:54.482Z,1.82
2023-03-04T05:21:21.236Z,1.74
2023-03-04T05:23:47.892Z,1.90
2023-03-04T05:26:18.484Z,1.68
2023-03-04T05:28:45.475Z,1.72
2023-03-04T05:31:12.555Z,1.85
2023-03-04T05:33:39.386Z,1.78
2023-03-04T05:36:07.125Z,1.70
2023-03-04T05:38:34.885Z,1.80
2023-03-04T05:41:04.646Z,1.70
2023-03-04T05:43:31.962Z,1.75
2023-03-04T05:45:58.510Z,1.47
2023-03-04T05:48:25.333Z,1.66
2023-03-04T05:50:59.362Z,1.64
2023-03-04T05:53:26.970Z,1.58
2023-03-04T05:55:53.788Z,1.64
2023-03-04T05:58:21.997Z,1.71
2023-03-04T06:00:48.747Z,1.62
2023-03-04T06:03:18.169Z,1.66
2023-03-04T06:05:45.480Z,1.84
2023-03-04T06:08:13.116Z,1.69
2023-03-04T06:10:41.653Z,1.52
2023-03-04T06:13:09.405Z,1.66
2023-03-04T06:15:36.349Z,1.56
2023-03-04T06:18:03.011Z,1.77
2023-03-04T06:20:30.135Z,1.61
2023-03-04T06:22:56.824Z,1.57
2023-03-04T06:25:23.998Z,1.75
2023-03-04T06:27:50.958Z,1.74
2023-03-04T06:30:18.517Z,1.76
2023-03-04T06:32:46.180Z,1.65
2023-03-04T06:35:14.598Z,1.62
2023-03-04T06:37:41.636Z,1.60
2023-03-04T06:40:09.176Z,1.82
2023-03-04T06:42:36.633Z,1.67
2023-03-04T06:45:04.718Z,1.84
2023-03-04T06:47:31.447Z,1.96
2023-03-04T06:49:58.448Z,1.64
2023-03-04T06:52:25.109Z,1.74
2023-03-04T06:54:51.737Z,1.82
2023-03-04T06:57:18.412Z,1.65
2023-03-04T06:59:44.965Z,1.74
2023-03-04T07:02:12.584Z,1.78
2023-03-04T07:04:40.150Z,1.73
2023-03-04T07:07:06.828Z,1.67
2023-03-04T07:09:33.434Z,1.76
2023-03-04T07:12:00.062Z,1.90
2023-03-04T07:14:27.781Z,1.72
2023-03-04T07:16:54.699Z,1.59
2023-03-04T07:19:21.556Z,1.59
2023-03-04T07:21:48.143Z,1.66
2023-03-04T07:24:15.332Z,1.87
2023-03-04T07:26:42.350Z,1.67
2023-03-04T07:29:09.132Z,1.68
2023-03-04T07:31:36.983Z,1.68
2023-03-04T07:34:06.476Z,1.58
2023-03-04T07:36:35.313Z,1.82
2023-03-04T07:39:02.734Z,1.65
2023-03-04T07:41:30.091Z,1.43
2023-03-04T07:43:58.181Z,1.66
2023-03-04T07:46:25.363Z,1.54
2023-03-04T07:48:51.988Z,1.48
2023-03-04T07:51:22.209Z,1.45
2023-03-04T07:53:52.275Z,1.55
2023-03-04T07:56:22.191Z,1.58
2023-03-04T07:58:49.849Z,1.67
2023-03-04T08:01:20.027Z,1.76
2023-03-04T08:03:46.719Z,1.66
2023-03-04T08:06:15.700Z,1.68
2023-03-04T08:08:43.160Z,1.63
2023-03-04T08:11:14.127Z,1.61
2023-03-04T08:13:40.771Z,1.61
2023-03-04T08:16:08.098Z,1.51
2023-03-04T08:18:34.972Z,1.57
2023-03-04T08:21:01.804Z,1.68
2023-03-04T08:23:28.485Z,1.49
2023-03-04T08:25:55.187Z,1.63
2023-03-04T08:28:21.800Z,1.46
2023-03-04T08:30:53.113Z,1.52
2023-03-04T08:33:20.059Z,1.66
2023-03-04T08:35:46.959Z,1.38
2023-03-04T08:38:13.598Z,1.48
2023-03-04T08:40:40.209Z,1.55
2023-03-04T08:43:06.882Z,1.47
2023-03-04T08:45:33.542Z,1.48
2023-03-04T08:48:00.154Z,1.53
2023-03-04T08:50:27.451Z,1.30
2023-03-04T08:52:54.157Z,1.39
2023-03-04T08:55:20.854Z,1.44
2023-03-04T08:57:47.449Z,1.36
2023-03-04T09:00:14.462Z,1.32
2023-03-04T09:02:41.110Z,1.25
2023-03-04T09:05:08.338Z,1.26
2023-03-04T09:07:34.906Z,1.20
2023-03-04T09:10:01.500Z,1.23
2023-03-04T09:12:28.164Z,1.28
2023-03-04T09:15:09.830Z,1.20
2023-03-04T09:17:37.524Z,0.98
2023-03-04T09:20:04.851Z,1.06
2023-03-04T09:22:31.798Z,1.06
2023-03-04T09:24:59.275Z,1.10
2023-03-04T09:27:26.069Z,1.00
2023-03-04T09:29:52.808Z,1.02
2023-03-04T09:32:20.046Z,1.07
2023-03-04T09:34:46.718Z,1.07
2023-03-04T09:37:13.391Z,0.94
2023-03-04T09:39:40.048Z,0.87
2023-03-04T09:42:10.839Z,1.11
2023-03-04T09:44:42.046Z,1.08
2023-03-04T09:47:16.547Z,1.11
2023-03-04T09:49:48.549Z,1.19
2023-03-04T09:52:21.097Z,1.11
2023-03-04T09:55:14.129Z,0.82
2023-03-04T09:57:50.712Z,0.92
2023-03-04T10:00:43.325Z,1.07
2023-03-04T10:03:15.743Z,1.17
2023-03-04T10:05:49.250Z,1.24
2023-03-04T10:08:35.071Z,1.37
2023-03-04T10:11:08.684Z,1.19
2023-03-04T10:13:45.730Z,1.04
2023-03-04T10:16:19.725Z,1.17
2023-03-04T10:18:54.635Z,0.89
2023-03-04T10:21:38.997Z,1.01
2023-03-04T10:24:15.200Z,1.05
2023-03-04T10:26:46.024Z,1.11
2023-03-04T10:29:18.735Z,1.09
2023-03-04T10:31:46.875Z,1.15
2023-03-04T10:34:15.625Z,0.99
2023-03-04T10:36:59.043Z,1.06
2023-03-04T10:39:35.686Z,1.09
2023-03-04T10:42:28.767Z,1.00
2023-03-04T10:44:58.846Z,1.00
2023-03-04T10:47:28.019Z,1.06
2023-03-04T10:50:00.221Z,1.06
2023-03-04T10:52:31.074Z,1.12
2023-03-04T10:55:01.977Z,1.13
2023-03-04T10:57:35.253Z,1.13
2023-03-04T11:00:04.583Z,0.97
2023-03-04T11:02:34.397Z,1.03
2023-03-04T11:05:32.538Z,1.15
2023-03-04T11:08:00.068Z,1.22
2023-03-04T11:10:41.570Z,1.05
2023-03-04T11:13:11.131Z,1.17
2023-03-04T11:15:58.569Z,1.12
2023-03-04T11:18:48.117Z,1.22
2023-03-04T11:21:21.475Z,1.21
2023-03-04T11:23:59.147Z,1.31
2023-03-04T11:26:32.772Z,1.19
2023-03-04T11:29:02.468Z,0.85
2023-03-04T11:31:50.479Z,0.90
2023-03-04T11:34:31.396Z,0.83
2023-03-04T11:37:17.970Z,1.45
2023-03-04T11:39:54.724Z,1.27
2023-03-04T11:42:21.255Z,1.25
2023-03-04T11:44:48.189Z,1.24
2023-03-04T11:47:29.608Z,1.41
2023-03-04T11:50:05.266Z,1.48
2023-03-04T11:53:01.252Z,1.24
2023-03-04T11:55:44.623Z,1.64
2023-03-04T11:58:48.369Z,1.39
2023-03-04T12:01:17.821Z,1.59
2023-03-04T12:04:09.456Z,1.40
2023-03-04T12:06:55.763Z,1.56
2023-03-04T12:09:42.729Z,1.39
2023-03-04T12:12:30.022Z,1.22
2023-03-04T12:15:11.482Z,1.43
2023-03-04T12:17:55.396Z,1.35
2023-03-04T12:20:40.496Z,1.43
2023-03-04T12:23:22.055Z,1.83
2023-03-04T12:26:30.725Z,3.34
2023-03-04T12:29:13.881Z,2.60
2023-03-04T12:31:46.831Z,2.00
2023-03-04T12:34:34.439Z,2.01
2023-03-04T12:37:21.563Z,1.86
2023-03-04T12:40:26.578Z,1.76
2023-03-04T12:43:02.214Z,1.68
2023-03-04T12:45:34.722Z,1.49
2023-03-04T12:48:20.078Z,1.47
2023-03-04T12:50:56.565Z,1.48
2023-03-04T12:53:42.026Z,1.58
2023-03-04T12:56:22.720Z,2.00
2023-03-04T12:58:50.512Z,1.77
2023-03-04T13:01:37.072Z,2.27
2023-03-04T13:04:36.423Z,2.03
2023-03-04T13:07:22.024Z,2.02
2023-03-04T13:10:01.293Z,2.04
2023-03-04T13:12:27.832Z,2.07
2023-03-04T13:15:17.320Z,2.32
2023-03-04T13:17:45.865Z,2.35
2023-03-04T13:20:18.310Z,2.28
2023-03-04T13:22:51.186Z,2.14
2023-03-04T13:25:46.522Z,2.21
2023-03-04T13:28:26.781Z,2.20
2023-03-04T13:30:57.029Z,2.42
2023-03-04T13:33:23.644Z,2.23
2023-03-04T13:35:50.404Z,2.22
2023-03-04T13:38:32.300Z,1.88
2023-03-04T13:41:05.018Z,1.74
2023-03-04T13:43:54.481Z,1.94
2023-03-04T13:46:21.209Z,1.59
2023-03-04T13:48:50.903Z,1.82
2023-03-04T13:51:32.319Z,1.91
2023-03-04T13:53:58.848Z,1.84
2023-03-04T13:57:00.936Z,1.86
2023-03-04T13:59:52.546Z,1.89
2023-03-04T14:02:22.631Z,1.64
2023-03-04T14:05:02.007Z,1.55
2023-03-04T14:07:37.126Z,1.42
2023-03-04T14:10:12.665Z,1.21
2023-03-04T14:12:50.038Z,1.24
2023-03-04T14:15:29.724Z,1.15
2023-03-04T14:17:59.152Z,1.21
2023-03-04T14:20:29.790Z,1.38
2023-03-04T14:22:58.658Z,1.24
2023-03-04T14:25:30.685Z,1.35
2023-03-04T14:28:03.384Z,1.56
2023-03-04T14:30:42.319Z,1.39
2023-03-04T14:33:21.837Z,1.35
2023-03-04T14:36:00.389Z,1.03
2023-03-04T14:38:34.849Z,1.10
2023-03-04T14:41:07.160Z,1.06
2023-03-04T14:44:18.352Z,1.39
2023-03-04T14:47:06.470Z,1.10
2023-03-04T14:49:36.936Z,1.19
2023-03-04T14:52:04.399Z,0.91
2023-03-04T14:54:38.408Z,0.99
2023-03-04T14:57:24.486Z,0.88
2023-03-04T14:59:52.068Z,0.99
2023-03-04T15:02:31.285Z,0.87
2023-03-04T15:05:25.387Z,0.91
2023-03-04T15:08:02.797Z,1.27
2023-03-04T15:10:37.228Z,1.14
2023-03-04T15:13:10.475Z,0.85
2023-03-04T15:15:43.603Z,0.97
2023-03-04T15:18:22.895Z,0.96
2023-03-04T15:20:57.909Z,0.93
2023-03-04T15:23:25.877Z,1.13
2023-03-04T15:26:01.835Z,1.13
2023-03-04T15:28:37.406Z,1.20
2023-03-04T15:31:05.790Z,0.95
2023-03-04T15:33:32.582Z,1.06
2023-03-04T15:36:02.462Z,1.01
2023-03-04T15:38:29.794Z,1.05
2023-03-04T15:40:59.497Z,1.10
2023-03-04T15:43:26.246Z,1.20
2023-03-04T15:45:53.193Z,1.22
2023-03-04T15:48:20.692Z,1.21
2023-03-04T15:50:54.188Z,1.06
2023-03-04T15:53:35.802Z,1.04
2023-03-04T15:56:04.804Z,1.41
2023-03-04T15:58:34.851Z,1.23
2023-03-04T16:01:01.966Z,1.21
2023-03-04T16:03:28.684Z,1.14
2023-03-04T16:05:56.542Z,1.11
2023-03-04T16:08:27.307Z,1.34
2023-03-04T16:10:54.739Z,1.22
2023-03-04T16:13:23.845Z,1.35
2023-03-04T16:15:51.991Z,1.22
2023-03-04T16:18:18.885Z,0.95
2023-03-04T16:20:48.175Z,1.42
2023-03-04T16:23:20.235Z,1.31
2023-03-04T16:25:49.870Z,1.27
2023-03-04T16:28:16.783Z,1.19
2023-03-04T16:30:43.515Z,1.41
2023-03-04T16:33:11.470Z,1.42
2023-03-04T16:35:39.430Z,1.50
2023-03-04T16:38:21.210Z,1.55
2023-03-04T16:40:48.103Z,1.75
2023-03-04T16:43:14.765Z,1.84
2023-03-04T16:45:41.861Z,1.75
2023-03-04T16:48:08.818Z,1.91
2023-03-04T16:50:37.722Z,1.93
2023-03-04T16:53:07.794Z,1.97
2023-03-04T16:55:37.268Z,1.78
2023-03-04T16:58:04.878Z,1.63
2023-03-04T17:00:32.738Z,2.09
2023-03-04T17:03:00.911Z,2.18
2023-03-04T17:05:31.244Z,2.02
2023-03-04T17:07:58.110Z,2.30
2023-03-04T17:10:24.846Z,2.53
2023-03-04T17:12:52.087Z,2.68
2023-03-04T17:15:19.056Z,2.26
2023-03-04T17:17:45.840Z,2.09
2023-03-04T17:20:15.974Z,2.37
2023-03-04T17:22:43.446Z,2.36
2023-03-04T17:25:11.700Z,2.52
2023-03-04T17:27:38.407Z,2.51
2023-03-04T17:30:08.028Z,2.61
2023-03-04T17:32:35.656Z,2.53
2023-03-04T17:35:03.314Z,2.13
2023-03-04T17:37:29.960Z,2.33
2023-03-04T17:39:56.713Z,2.67
2023-03-04T17:42:23.331Z,2.43
2023-03-04T17:44:49.894Z,2.74
2023-03-04T17:47:17.224Z,2.58
2023-03-04T17:49:43.858Z,2.63
2023-03-04T17:52:11.756Z,2.60
2023-03-04T17:54:38.463Z,2.50
2023-03-04T17:57:05.437Z,2.13
2023-03-04T17:59:32.334Z,2.31
2023-03-04T18:01:59.044Z,2.10
2023-03-04T18:04:25.658Z,2.22
2023-03-04T18:06:52.298Z,2.48
2023-03-04T18:09:18.916Z,2.65
2023-03-04T18:11:45.720Z,2.69
2023-03-04T18:14:12.799Z,3.13
2023-03-04T18:16:40.197Z,2.99
2023-03-04T18:19:07.080Z,2.96
2023-03-04T18:21:33.644Z,2.67
2023-03-04T18:24:00.270Z,2.64
2023-03-04T18:26:27.926Z,2.52
2023-03-04T18:28:56.371Z,2.42
2023-03-04T18:31:27.261Z,2.38
2023-03-04T18:33:55.234Z,2.45
2023-03-04T18:36:21.840Z,2.53
2023-03-04T18:38:48.374Z,2.25
2023-03-04T18:41:16.174Z,2.31
2023-03-04T18:43:43.109Z,2.74
2023-03-04T18:46:17.514Z,2.42
2023-03-04T18:48:48.028Z,2.31
2023-03-04T18:51:14.591Z,2.33
2023-03-04T18:53:41.526Z,2.40
2023-03-04T18:56:13.594Z,2.38
2023-03-04T18:58:43.881Z,2.49
2023-03-04T19:01:12.511Z,2.71
2023-03-04T19:03:41.650Z,2.34
2023-03-04T19:06:08.335Z,2.31
2023-03-04T19:08:35.339Z,2.48
2023-03-04T19:11:02.116Z,2.40
2023-03-04T19:13:30.718Z,2.30
2023-03-04T19:15:57.410Z,2.30
2023-03-04T19:18:24.744Z,2.49
2023-03-04T19:20:51.401Z,2.65
2023-03-04T19:23:18.171Z,2.53
2023-03-04T19:25:45.266Z,2.84
2023-03-04T19:28:12.146Z,2.53
2023-03-04T19:30:40.392Z,2.71
2023-03-04T19:33:08.124Z,2.65
2023-03-04T19:35:34.882Z,2.85
2023-03-04T19:38:01.570Z,2.68
2023-03-04T19:40:28.707Z,3.06
2023-03-04T19:42:56.781Z,3.05
2023-03-04T19:45:25.404Z,3.26
2023-03-04T19:47:52.398Z,3.35
2023-03-04T19:50:19.234Z,3.16
2023-03-04T19:52:45.948Z,3.47
2023-03-04T19:55:12.909Z,3.67
2023-03-04T19:57:40.593Z,4.01
2023-03-04T20:00:08.468Z,4.01
2023-03-04T20:02:35.366Z,3.78
2023-03-04T20:05:02.131Z,3.91
2023-03-04T20:07:28.807Z,3.15
2023-03-04T20:09:56.251Z,3.21
2023-03-04T20:12:23.949Z,2.90
2023-03-04T20:14:53.650Z,2.79
2023-03-04T20:17:20.283Z,2.84
2023-03-04T20:19:47.429Z,2.78
2023-03-04T20:22:14.183Z,2.95
2023-03-04T20:24:40.762Z,3.10
2023-03-04T20:27:07.398Z,3.11
2023-03-04T20:29:33.984Z,3.20
2023-03-04T20:32:01.356Z,3.14
2023-03-04T20:34:28.046Z,2.84
2023-03-04T20:36:54.662Z,3.10
2023-03-04T20:39:29.280Z,3.24
2023-03-04T20:41:59.628Z,3.27
2023-03-04T20:44:26.481Z,3.02
2023-03-04T20:46:53.481Z,3.29
2023-03-04T20:49:27.311Z,3.17
2023-03-04T20:51:57.903Z,3.30
2023-03-04T20:54:24.505Z,3.47
2023-03-04T20:56:51.431Z,3.10
2023-03-04T20:59:18.428Z,3.21
2023-03-04T21:01:47.661Z,3.28
2023-03-04T21:04:14.804Z,3.35
2023-03-04T21:06:41.919Z,3.26
2023-03-04T21:09:11.937Z,3.37
2023-03-04T21:11:42.169Z,3.50
2023-03-04T21:14:19.520Z,3.66
2023-03-04T21:16:46.361Z,3.94
2023-03-04T21:19:16.967Z,4.65
2023-03-04T21:21:45.124Z,4.90
2023-03-04T21:24:15.580Z,5.33
2023-03-04T21:26:47.514Z,4.97
2023-03-04T21:29:20.631Z,4.66
2023-03-04T21:31:51.582Z,4.69
2023-03-04T21:34:40.109Z,4.53
2023-03-04T21:37:06.962Z,4.31
2023-03-04T21:39:34.002Z,4.10
2023-03-04T21:42:00.950Z,4.08
2023-03-04T21:44:38.663Z,4.17
2023-03-04T21:47:14.810Z,4.27
2023-03-04T21:49:41.445Z,4.31
2023-03-04T21:52:08.163Z,4.41
2023-03-04T21:54:34.835Z,4.54
2023-03-04T21:57:01.605Z,4.58
2023-03-04T21:59:28.209Z,4.68
2023-03-04T22:01:55.247Z,4.56
2023-03-04T22:04:22.107Z,4.43
2023-03-04T22:06:48.716Z,4.50
2023-03-04T22:09:16.045Z,4.58
2023-03-04T22:11:42.686Z,4.45
2023-03-04T22:14:11.133Z,4.12
2023-03-04T22:16:48.998Z,3.96
2023-03-04T22:19:19.485Z,4.16
2023-03-04T22:21:46.116Z,4.14
2023-03-04T22:24:12.782Z,4.13
2023-03-04T22:26:39.411Z,4.05
2023-03-04T22:29:06.625Z,4.49
2023-03-04T22:31:36.127Z,4.79
2023-03-04T22:34:14.446Z,4.44
2023-03-04T22:36:45.944Z,4.25
2023-03-04T22:39:15.212Z,4.33
2023-03-04T22:41:41.890Z,3.80
2023-03-04T22:44:08.722Z,3.66
2023-03-04T22:46:38.642Z,3.30
2023-03-04T22:49:11.333Z,3.40
2023-03-04T22:51:41.068Z,3.26
2023-03-04T22:54:07.782Z,3.52
2023-03-04T22:56:36.426Z,3.14
2023-03-04T22:59:03.372Z,3.27
2023-03-04T23:01:30.043Z,3.09
2023-03-04T23:03:56.737Z,3.35
2023-03-04T23:06:25.399Z,3.24
2023-03-04T23:08:52.639Z,3.21
2023-03-04T23:11:28.873Z,2.88
2023-03-04T23:13:55.880Z,2.85
2023-03-04T23:16:24.760Z,3.10
2023-03-04T23:18:52.099Z,2.58
2023-03-04T23:21:22.062Z,2.57
2023-03-04T23:23:49.182Z,2.73
2023-03-04T23:26:25.074Z,2.73
2023-03-04T23:28:53.228Z,2.90
2023-03-04T23:31:20.218Z,2.75
2023-03-04T23:33:48.399Z,2.81
2023-03-04T23:36:18.246Z,2.84
2023-03-04T23:38:47.538Z,2.58
2023-03-04T23:41:17.340Z,2.61
2023-03-04T23:43:44.049Z,2.68
2023-03-04T23:46:14.199Z,2.42
2023-03-04T23:48:46.325Z,2.69
2023-03-04T23:51:15.493Z,2.51
2023-03-04T23:53:42.247Z,2.44
2023-03-04T23:56:10.875Z,2.39
2023-03-04T23:58:37.995Z,2.43
